Time;durP1;ratioP1;P1;durP2;ratioP2;P2;SDS_P1;SDS_P2;PMS_P1;PMS_P2;Temp;Humidity;BMP_temperature;BMP_pressure;BME280_temperature;BME280_humidity;BME280_pressure;Samples;Min_cycle;Max_cycle;Signal;HPM_P1;HPM_P2
2021/03/09 00:02:58;;;;;;;38.58;20.23;;;8.70;99.90;;;;;;5057043;28;20051;-67
2021/03/09 00:06:02;;;;;;;25.83;15.55;;;8.70;99.90;;;;;;5062181;28;20040;-67
2021/03/09 00:09:07;;;;;;;23.65;15.02;;;8.70;99.90;;;;;;5060383;28;20416;-67
2021/03/09 00:12:11;;;;;;;34.83;16.58;;;8.70;99.90;;;;;;5059709;28;20044;-67
2021/03/09 00:15:15;;;;;;;24.48;15.90;;;8.70;99.90;;;;;;5060362;28;20508;-67
2021/03/09 00:18:19;;;;;;;28.58;15.35;;;8.70;99.90;;;;;;5061915;28;20500;-67
2021/03/09 00:21:23;;;;;;;25.63;15.18;;;8.60;99.90;;;;;;5052972;28;20055;-67
2021/03/09 00:24:27;;;;;;;23.90;15.63;;;8.60;99.90;;;;;;5034069;28;20051;-67
2021/03/09 00:27:32;;;;;;;26.52;15.98;;;8.60;99.90;;;;;;5032080;28;20614;-67
2021/03/09 00:30:37;;;;;;;29.98;15.27;;;8.60;99.90;;;;;;5061304;28;20032;-67
2021/03/09 00:33:41;;;;;;;25.67;14.88;;;8.60;99.90;;;;;;5060844;28;20036;-67
2021/03/09 00:36:46;;;;;;;25.92;16.02;;;8.60;99.90;;;;;;5064859;28;20051;-65
2021/03/09 00:39:50;;;;;;;25.40;14.48;;;8.60;99.90;;;;;;5059889;28;20555;-67
2021/03/09 00:42:54;;;;;;;22.67;15.10;;;8.60;99.90;;;;;;5068302;28;20043;-67
2021/03/09 00:45:58;;;;;;;26.02;15.30;;;8.50;99.90;;;;;;5058949;28;20036;-67
2021/03/09 00:49:02;;;;;;;31.30;15.05;;;8.60;99.90;;;;;;5056481;28;20048;-67
2021/03/09 00:52:06;;;;;;;26.55;15.27;;;8.50;99.90;;;;;;5054669;28;20048;-67
2021/03/09 00:55:11;;;;;;;26.27;14.85;;;8.50;99.90;;;;;;5056983;28;20060;-67
2021/03/09 00:58:15;;;;;;;24.58;15.07;;;8.50;99.90;;;;;;5068637;28;20047;-67
2021/03/09 01:01:20;;;;;;;27.48;15.00;;;8.50;99.90;;;;;;5063975;28;20527;-67
2021/03/09 01:04:24;;;;;;;21.40;13.60;;;8.50;99.90;;;;;;5056502;28;20099;-67
2021/03/09 01:07:28;;;;;;;27.85;15.52;;;8.50;99.90;;;;;;5056655;28;20398;-67
2021/03/09 01:10:32;;;;;;;27.25;14.75;;;8.50;99.90;;;;;;5065664;28;20048;-67
2021/03/09 01:13:36;;;;;;;27.90;15.73;;;8.40;99.90;;;;;;5064445;28;20428;-67
2021/03/09 01:16:40;;;;;;;28.58;14.77;;;8.40;99.90;;;;;;5055217;28;20429;-67
2021/03/09 01:19:44;;;;;;;25.92;15.82;;;8.40;99.90;;;;;;5062203;28;20528;-67
2021/03/09 01:22:49;;;;;;;20.88;13.98;;;8.40;99.90;;;;;;5056012;28;20503;-67
2021/03/09 01:25:54;;;;;;;27.50;16.02;;;8.40;99.90;;;;;;5067206;28;20090;-67
2021/03/09 01:28:58;;;;;;;24.73;15.75;;;8.30;99.90;;;;;;5060341;28;20067;-67
2021/03/09 01:32:03;;;;;;;25.55;14.07;;;8.30;99.90;;;;;;5055069;28;20044;-67
2021/03/09 01:35:09;;;;;;;26.42;14.50;;;8.30;99.90;;;;;;5056129;28;20527;-67
2021/03/09 01:38:14;;;;;;;25.10;14.40;;;8.30;99.90;;;;;;5059540;28;20055;-67
2021/03/09 01:41:18;;;;;;;27.02;14.90;;;8.20;99.90;;;;;;5067766;28;20046;-67
2021/03/09 01:44:24;;;;;;;28.00;14.15;;;8.20;99.90;;;;;;5060615;28;20035;-67
2021/03/09 01:47:31;;;;;;;22.70;14.48;;;8.20;99.90;;;;;;5057952;28;20036;-67
2021/03/09 01:50:41;;;;;;;29.15;14.65;;;8.20;99.90;;;;;;5055245;28;20044;-65
2021/03/09 01:53:46;;;;;;;21.95;14.23;;;8.10;99.90;;;;;;5061343;28;20063;-67
2021/03/09 01:56:51;;;;;;;25.98;14.18;;;8.20;99.90;;;;;;5063121;28;20051;-67
2021/03/09 01:59:56;;;;;;;25.67;15.07;;;8.20;99.90;;;;;;5058043;28;20408;-67
2021/03/09 02:03:00;;;;;;;29.13;14.68;;;8.20;99.90;;;;;;5068441;28;20040;-66
2021/03/09 02:06:05;;;;;;;27.05;14.25;;;8.20;99.90;;;;;;5070166;28;20052;-67
2021/03/09 02:09:10;;;;;;;25.00;14.18;;;8.20;99.90;;;;;;5070999;28;20970;-67
2021/03/09 02:12:38;;;;;;;24.55;14.50;;;8.30;99.90;;;;;;5070348;28;20057;-67
2021/03/09 02:16:08;;;;;;;28.15;15.23;;;8.30;99.90;;;;;;5064132;28;20051;-67
2021/03/09 02:19:27;;;;;;;26.52;14.60;;;8.20;99.90;;;;;;5064216;28;20059;-67
2021/03/09 02:23:09;;;;;;;25.75;15.23;;;8.20;99.90;;;;;;5059557;28;20134;-67
2021/03/09 02:26:20;;;;;;;25.58;14.63;;;8.20;99.90;;;;;;5070611;28;20071;-67
2021/03/09 02:29:39;;;;;;;26.00;14.23;;;8.20;99.90;;;;;;5067644;28;20431;-66
2021/03/09 02:32:50;;;;;;;26.20;13.25;;;8.20;99.90;;;;;;5070101;28;20056;-67
2021/03/09 02:36:07;;;;;;;26.75;14.25;;;8.30;99.90;;;;;;5070062;28;20059;-67
2021/03/09 02:39:13;;;;;;;24.23;12.77;;;8.20;99.90;;;;;;5061387;28;20063;-67
2021/03/09 02:42:27;;;;;;;22.23;12.13;;;8.20;99.90;;;;;;5058481;28;20035;-67
2021/03/09 02:45:32;;;;;;;24.95;12.88;;;8.20;99.90;;;;;;5068912;28;20039;-67
2021/03/09 02:48:39;;;;;;;23.20;13.15;;;8.20;99.90;;;;;;5069776;28;20036;-67
2021/03/09 02:51:46;;;;;;;22.45;12.98;;;8.20;99.90;;;;;;5069887;28;20036;-67
2021/03/09 02:54:51;;;;;;;23.65;13.43;;;8.20;99.90;;;;;;5070270;28;20048;-67
2021/03/09 02:57:56;;;;;;;24.52;13.32;;;8.10;99.90;;;;;;5061210;28;20048;-67
2021/03/09 03:01:02;;;;;;;23.42;14.25;;;8.10;99.90;;;;;;5058614;28;20048;-66
2021/03/09 03:04:09;;;;;;;25.52;13.23;;;8.20;99.90;;;;;;5055296;28;20052;-67
2021/03/09 03:07:16;;;;;;;21.25;12.48;;;8.20;99.90;;;;;;5061543;28;20032;-66
2021/03/09 03:10:21;;;;;;;23.35;13.07;;;8.20;99.90;;;;;;5049777;28;20047;-67
2021/03/09 03:13:26;;;;;;;23.48;12.30;;;8.10;99.90;;;;;;5058079;28;20047;-67
2021/03/09 03:16:32;;;;;;;23.98;12.80;;;8.10;99.90;;;;;;5055928;28;20051;-67
2021/03/09 03:19:37;;;;;;;21.90;11.90;;;8.20;99.90;;;;;;5069539;28;20039;-67
2021/03/09 03:22:43;;;;;;;23.10;12.25;;;8.00;99.90;;;;;;5069482;28;20515;-67
2021/03/09 03:25:51;;;;;;;20.65;12.13;;;8.00;99.90;;;;;;5069078;28;20051;-67
2021/03/09 03:28:57;;;;;;;20.52;12.40;;;8.10;99.90;;;;;;5069532;28;20048;-67
2021/03/09 03:32:00;;;;;;;20.75;11.43;;;8.00;99.90;;;;;;5057851;28;20031;-67
2021/03/09 03:35:08;;;;;;;19.77;11.75;;;8.10;99.90;;;;;;5068953;28;20055;-66
2021/03/09 03:38:16;;;;;;;22.35;11.45;;;8.20;99.90;;;;;;5069566;28;20044;-67
2021/03/09 03:41:20;;;;;;;21.02;11.18;;;8.20;99.90;;;;;;5064721;28;20059;-67
2021/03/09 03:44:24;;;;;;;23.05;10.57;;;8.10;99.90;;;;;;5061105;28;20423;-67
2021/03/09 03:47:28;;;;;;;17.60;10.35;;;8.10;99.90;;;;;;5069429;28;20047;-67
2021/03/09 03:50:32;;;;;;;16.48;10.35;;;8.10;99.90;;;;;;5056073;28;20055;-67
2021/03/09 03:54:16;;;;;;;17.35;11.20;;;8.10;99.90;;;;;;5069227;28;20055;-66
2021/03/09 03:57:30;;;;;;;18.25;10.45;;;8.10;99.90;;;;;;5051783;28;20035;-67
2021/03/09 04:00:35;;;;;;;22.98;11.30;;;8.20;99.90;;;;;;5068583;28;20069;-67
2021/03/09 04:03:40;;;;;;;19.30;10.15;;;8.10;99.90;;;;;;5068896;28;20048;-67
2021/03/09 04:06:51;;;;;;;19.98;11.68;;;8.10;99.90;;;;;;5068392;28;20482;-67
2021/03/09 04:09:56;;;;;;;15.35;9.90;;;8.10;99.90;;;;;;5069501;28;20048;-67
2021/03/09 04:13:01;;;;;;;15.70;10.43;;;8.10;99.90;;;;;;5057168;28;20523;-67
2021/03/09 04:16:05;;;;;;;22.25;11.50;;;8.20;99.90;;;;;;5068827;28;20044;-67
2021/03/09 04:19:12;;;;;;;17.63;10.55;;;8.10;99.90;;;;;;5068916;28;20043;-67
2021/03/09 04:22:18;;;;;;;23.77;11.02;;;8.10;99.90;;;;;;5068864;28;20046;-67
2021/03/09 04:25:23;;;;;;;28.23;13.32;;;8.00;99.90;;;;;;5068358;28;20043;-67
2021/03/09 04:28:28;;;;;;;20.73;11.43;;;7.90;99.90;;;;;;5058285;28;20046;-66
2021/03/09 04:31:33;;;;;;;17.90;11.35;;;7.90;99.90;;;;;;5055782;28;20073;-67
2021/03/09 04:34:37;;;;;;;19.33;11.23;;;7.80;99.90;;;;;;5068391;28;20032;-67
2021/03/09 04:37:43;;;;;;;20.92;11.98;;;7.80;99.90;;;;;;5068383;28;20317;-67
2021/03/09 04:40:49;;;;;;;19.02;12.45;;;7.80;99.90;;;;;;5068601;28;20056;-66
2021/03/09 04:43:53;;;;;;;17.35;10.68;;;7.70;99.90;;;;;;5068859;28;20063;-67
2021/03/09 04:46:57;;;;;;;23.45;12.20;;;7.70;99.90;;;;;;5056264;28;20044;-67
2021/03/09 04:50:05;;;;;;;21.63;11.85;;;7.70;99.90;;;;;;5068514;28;20036;-66
2021/03/09 04:53:09;;;;;;;19.95;10.80;;;7.60;99.90;;;;;;5068510;28;21203;-67
2021/03/09 04:56:14;;;;;;;19.80;12.20;;;7.60;99.90;;;;;;5071367;28;20039;-67
2021/03/09 04:59:18;;;;;;;24.42;11.80;;;7.60;99.90;;;;;;5071422;28;20055;-67
2021/03/09 05:02:23;;;;;;;21.23;11.95;;;7.50;99.90;;;;;;5072504;28;20036;-67
2021/03/09 05:05:27;;;;;;;18.02;11.30;;;7.60;99.90;;;;;;5067863;28;20044;-67
2021/03/09 05:08:32;;;;;;;17.33;10.73;;;7.60;99.90;;;;;;5072408;28;20043;-67
2021/03/09 05:11:36;;;;;;;22.15;11.93;;;7.50;99.90;;;;;;5063011;28;20059;-67
2021/03/09 05:14:40;;;;;;;21.67;11.88;;;7.60;99.90;;;;;;5059921;28;20043;-67
2021/03/09 05:17:45;;;;;;;17.92;11.75;;;7.40;99.90;;;;;;5071997;28;20052;-67
2021/03/09 05:20:50;;;;;;;18.70;10.52;;;7.40;99.90;;;;;;5071399;28;20051;-67
2021/03/09 05:23:54;;;;;;;16.30;10.73;;;7.40;99.90;;;;;;5071964;28;20051;-67
2021/03/09 05:26:58;;;;;;;19.00;11.43;;;7.50;99.90;;;;;;5062439;28;20514;-67
2021/03/09 05:30:03;;;;;;;19.17;10.23;;;7.60;99.90;;;;;;5060205;28;20044;-67
2021/03/09 05:33:09;;;;;;;17.83;10.65;;;7.60;99.90;;;;;;5057908;28;20048;-66
2021/03/09 05:36:13;;;;;;;18.75;9.85;;;7.60;99.90;;;;;;5070600;28;20059;-66
2021/03/09 05:39:17;;;;;;;19.63;11.55;;;7.60;99.90;;;;;;5057253;28;20040;-67
2021/03/09 05:42:22;;;;;;;23.85;11.02;;;7.60;99.90;;;;;;5060355;28;20051;-67
2021/03/09 05:45:27;;;;;;;19.20;11.27;;;7.60;99.90;;;;;;5070053;28;20055;-67
2021/03/09 05:48:32;;;;;;;18.88;11.85;;;7.60;99.90;;;;;;5057817;28;20756;-67
2021/03/09 05:51:38;;;;;;;20.13;10.32;;;7.60;99.90;;;;;;5062401;28;20530;-67
2021/03/09 05:54:42;;;;;;;17.73;10.30;;;7.60;99.90;;;;;;5069358;28;20056;-67
2021/03/09 05:57:48;;;;;;;17.80;10.80;;;7.60;99.90;;;;;;5053386;28;20044;-67
2021/03/09 06:00:53;;;;;;;21.77;11.30;;;7.60;99.90;;;;;;5056047;28;20055;-65
2021/03/09 06:04:08;;;;;;;19.83;10.57;;;7.60;99.90;;;;;;5067803;28;20035;-67
2021/03/09 06:07:17;;;;;;;22.90;11.55;;;7.50;99.90;;;;;;5061675;28;20039;-67
2021/03/09 06:10:24;;;;;;;15.48;9.98;;;7.50;99.90;;;;;;5072770;28;20158;-66
2021/03/09 06:13:35;;;;;;;18.55;10.20;;;7.70;99.90;;;;;;5077055;28;20054;-66
2021/03/09 06:16:41;;;;;;;22.80;10.30;;;7.60;99.90;;;;;;5063519;28;20043;-67
2021/03/09 06:19:47;;;;;;;20.02;10.57;;;7.60;99.90;;;;;;5049574;28;20413;-67
2021/03/09 06:22:53;;;;;;;17.95;11.20;;;7.60;99.90;;;;;;5050166;28;20040;-67
2021/03/09 06:25:57;;;;;;;19.58;11.20;;;7.80;99.90;;;;;;5067699;28;20035;-67
2021/03/09 06:29:20;;;;;;;23.02;11.60;;;7.60;99.90;;;;;;5070039;28;20047;-67
2021/03/09 06:32:26;;;;;;;17.55;11.25;;;7.60;99.90;;;;;;5074972;28;20051;-68
2021/03/09 06:35:42;;;;;;;19.08;11.23;;;7.80;99.90;;;;;;5074536;28;20043;-68
2021/03/09 06:38:54;;;;;;;18.83;11.23;;;8.10;99.90;;;;;;5075916;28;20628;-67
2021/03/09 06:42:00;;;;;;;17.70;10.55;;;8.40;99.90;;;;;;5066197;28;20044;-66
2021/03/09 06:45:15;;;;;;;18.08;9.95;;;8.60;99.90;;;;;;5068298;28;20444;-67
2021/03/09 06:48:23;;;;;;;20.98;11.35;;;8.80;99.90;;;;;;5066568;28;20052;-67
2021/03/09 06:51:38;;;;;;;17.75;10.13;;;8.80;99.90;;;;;;5065285;28;20047;-67
2021/03/09 06:54:44;;;;;;;17.77;11.15;;;8.90;99.90;;;;;;5074598;28;20043;-67
2021/03/09 06:58:04;;;;;;;17.73;9.68;;;8.90;99.90;;;;;;5071092;28;20047;-68
2021/03/09 07:01:15;;;;;;;17.55;10.07;;;8.90;99.90;;;;;;5066359;28;20043;-66
2021/03/09 07:04:21;;;;;;;20.60;8.95;;;9.00;99.90;;;;;;5068207;28;20039;-67
2021/03/09 07:07:37;;;;;;;20.55;9.40;;;9.10;99.90;;;;;;5064976;28;20048;-67
2021/03/09 07:10:42;;;;;;;15.50;9.50;;;9.10;99.90;;;;;;5066073;28;20059;-66
2021/03/09 07:13:47;;;;;;;16.95;9.48;;;9.40;99.90;;;;;;5062525;28;20408;-67
2021/03/09 07:16:52;;;;;;;17.38;10.43;;;9.60;99.90;;;;;;5065701;28;20047;-68
2021/03/09 07:19:58;;;;;;;25.00;12.98;;;9.40;99.90;;;;;;5056698;28;20047;-67
2021/03/09 07:23:03;;;;;;;37.88;19.02;;;9.60;99.90;;;;;;5059037;28;20044;-66
2021/03/09 07:26:11;;;;;;;38.10;21.23;;;9.50;99.90;;;;;;5060581;28;20039;-69
2021/03/09 07:29:17;;;;;;;29.60;18.35;;;9.90;99.90;;;;;;5058891;28;20056;-68
2021/03/09 07:32:23;;;;;;;15.18;8.32;;;10.40;99.90;;;;;;5062052;28;20121;-68
2021/03/09 07:35:28;;;;;;;5.18;3.17;;;10.70;99.90;;;;;;5062823;28;20044;-69
2021/03/09 07:38:33;;;;;;;4.93;2.55;;;11.30;99.90;;;;;;5065900;28;20046;-66
2021/03/09 07:41:38;;;;;;;18.45;11.00;;;11.80;99.90;;;;;;5066449;28;20411;-68
2021/03/09 07:44:43;;;;;;;21.10;10.95;;;11.80;99.90;;;;;;5068565;28;20044;-68
2021/03/09 07:48:05;;;;;;;11.95;7.72;;;11.30;99.90;;;;;;5060036;28;20044;-68
2021/03/09 07:51:10;;;;;;;15.23;7.07;;;11.30;99.90;;;;;;5061626;28;20063;-68
2021/03/09 07:54:14;;;;;;;9.60;6.05;;;11.20;99.90;;;;;;5062234;28;20051;-68
2021/03/09 07:57:22;;;;;;;10.68;5.40;;;11.70;99.90;;;;;;5061834;28;20052;-67
2021/03/09 08:00:45;;;;;;;9.10;5.10;;;11.10;99.90;;;;;;5055097;28;20051;-68
2021/03/09 08:04:06;;;;;;;9.35;4.78;;;11.20;99.90;;;;;;5066120;28;20416;-67
2021/03/09 08:07:12;;;;;;;6.00;3.10;;;12.00;99.90;;;;;;5046885;28;20052;-68
2021/03/09 08:10:40;;;;;;;4.63;3.25;;;12.80;99.90;;;;;;5064160;28;20044;-68
2021/03/09 08:13:44;;;;;;;7.15;3.22;;;13.70;99.90;;;;;;5063960;28;20051;-68
2021/03/09 08:16:50;;;;;;;4.38;1.88;;;14.90;99.90;;;;;;5059591;28;20408;-68
2021/03/09 08:19:54;;;;;;;3.20;1.50;;;16.10;99.90;;;;;;5037947;28;20047;-66
2021/03/09 08:22:58;;;;;;;4.97;2.90;;;17.40;99.90;;;;;;5037923;28;20048;-68
2021/03/09 08:26:05;;;;;;;10.68;5.90;;;17.30;99.60;;;;;;5057236;28;20419;-67
2021/03/09 08:29:28;;;;;;;9.05;5.53;;;18.20;99.70;;;;;;5062247;28;20048;-68
2021/03/09 08:32:35;;;;;;;7.95;4.20;;;17.20;98.60;;;;;;5065781;28;20047;-68
2021/03/09 08:35:39;;;;;;;7.82;3.00;;;18.70;98.30;;;;;;5059726;28;20479;-68
2021/03/09 08:38:43;;;;;;;4.43;1.58;;;18.60;97.00;;;;;;5054668;28;20040;-68
2021/03/09 08:41:47;;;;;;;2.10;1.27;;;18.40;96.20;;;;;;5065244;28;20538;-68
2021/03/09 08:45:30;;;;;;;4.78;1.40;;;18.80;95.70;;;;;;5064865;28;20435;-68
2021/03/09 08:48:46;;;;;;;2.78;1.52;;;18.90;94.90;;;;;;5059023;28;20383;-68
2021/03/09 08:51:51;;;;;;;6.03;4.38;;;18.20;92.80;;;;;;5063790;28;20044;-68
2021/03/09 08:54:56;;;;;;;7.32;4.40;;;17.40;96.80;;;;;;5064332;28;20047;-67
2021/03/09 08:58:07;;;;;;;6.95;4.25;;;16.70;98.50;;;;;;5054310;28;20055;-68
2021/03/09 09:01:22;;;;;;;4.75;2.92;;;16.10;98.20;;;;;;5061628;28;20056;-68
2021/03/09 09:04:27;;;;;;;5.80;3.28;;;16.60;98.40;;;;;;5063068;28;20046;-68
2021/03/09 09:07:40;;;;;;;3.38;2.47;;;15.70;98.70;;;;;;5048940;28;20246;-68
2021/03/09 09:10:45;;;;;;;6.47;3.75;;;16.20;98.20;;;;;;5060742;28;20043;-69
2021/03/09 09:13:49;;;;;;;7.80;4.00;;;16.70;98.40;;;;;;5065239;28;20047;-68
2021/03/09 09:16:54;;;;;;;3.17;2.00;;;18.00;97.50;;;;;;5060739;28;20047;-68
2021/03/09 09:20:00;;;;;;;3.20;2.40;;;19.50;93.90;;;;;;5060040;28;20059;-68
2021/03/09 09:23:15;;;;;;;4.35;2.20;;;19.80;92.70;;;;;;5067746;28;20074;-68
2021/03/09 09:26:19;;;;;;;1.38;0.80;;;19.60;92.30;;;;;;5065722;28;20055;-68
2021/03/09 09:29:23;;;;;;;1.52;1.00;;;19.80;91.20;;;;;;5061025;28;20051;-68
2021/03/09 09:32:52;;;;;;;4.25;2.85;;;22.00;86.80;;;;;;5063620;28;20047;-68
2021/03/09 09:35:58;;;;;;;2.42;1.13;;;24.50;79.00;;;;;;5064001;28;20055;-69
2021/03/09 09:39:05;;;;;;;0.82;0.70;;;26.10;71.30;;;;;;5059184;28;20040;-67
2021/03/09 09:42:18;;;;;;;166.75;117.18;;;26.00;64.90;;;;;;5060556;28;20051;-67
2021/03/09 09:45:23;;;;;;;1.85;1.40;;;24.00;67.70;;;;;;5057286;28;20036;-67
2021/03/09 09:48:35;;;;;;;1.25;0.80;;;22.80;68.50;;;;;;5056618;28;20791;-67
2021/03/09 09:51:40;;;;;;;2.47;1.23;;;23.20;68.00;;;;;;5063654;28;20431;-69
2021/03/09 09:54:56;;;;;;;2.05;0.95;;;24.40;66.80;;;;;;5063101;28;20059;-68
2021/03/09 09:58:01;;;;;;;1.35;1.00;;;26.20;63.50;;;;;;5058903;28;20051;-68
2021/03/09 10:01:05;;;;;;;4.13;1.48;;;28.00;60.60;;;;;;5062803;28;20048;-68
2021/03/09 10:04:16;;;;;;;2.60;1.30;;;28.60;58.70;;;;;;5064490;28;20036;-68
2021/03/09 10:07:22;;;;;;;3.00;1.60;;;27.50;56.90;;;;;;5054676;28;20056;-68
2021/03/09 10:10:27;;;;;;;3.78;1.60;;;29.40;55.80;;;;;;5058899;28;20039;-68
2021/03/09 10:13:31;;;;;;;7.68;1.95;;;29.70;53.30;;;;;;5058550;28;20035;-68
2021/03/09 10:16:40;;;;;;;4.70;1.75;;;27.20;53.50;;;;;;5057616;28;20051;-69
2021/03/09 10:19:44;;;;;;;3.65;1.70;;;26.50;54.80;;;;;;5060603;28;20043;-68
2021/03/09 10:22:51;;;;;;;1.65;1.30;;;27.10;54.20;;;;;;5063349;28;20051;-68
2021/03/09 10:26:02;;;;;;;2.38;1.52;;;26.90;53.60;;;;;;5061845;28;20059;-68
2021/03/09 10:29:16;;;;;;;3.20;1.50;;;28.80;52.70;;;;;;5058004;28;20039;-69
2021/03/09 10:32:20;;;;;;;3.00;1.45;;;30.20;50.60;;;;;;5062654;28;20052;-68
2021/03/09 10:35:24;;;;;;;3.78;2.70;;;30.00;49.30;;;;;;5063023;28;20039;-67
2021/03/09 10:38:29;;;;;;;2.45;1.45;;;28.30;49.70;;;;;;5056903;28;20051;-68
2021/03/09 10:41:33;;;;;;;7.43;1.60;;;28.80;50.30;;;;;;5063177;28;20047;-68
2021/03/09 10:44:37;;;;;;;2.63;1.63;;;28.80;49.30;;;;;;5062753;28;20047;-68
2021/03/09 10:47:48;;;;;;;4.00;2.33;;;28.70;49.80;;;;;;5059140;28;20040;-68
2021/03/09 10:50:53;;;;;;;2.20;1.50;;;28.00;50.00;;;;;;5062194;28;20048;-68
2021/03/09 10:53:57;;;;;;;4.60;1.83;;;28.20;49.80;;;;;;5055663;28;20403;-67
2021/03/09 10:57:06;;;;;;;5.55;2.20;;;25.20;50.70;;;;;;5062834;28;20048;-67
2021/03/09 11:00:14;;;;;;;4.85;2.08;;;24.10;53.90;;;;;;5056349;28;20048;-69
2021/03/09 11:03:18;;;;;;;2.63;2.03;;;23.60;54.10;;;;;;5057746;28;20059;-68
2021/03/09 11:06:21;;;;;;;4.15;1.83;;;23.70;53.80;;;;;;5057770;28;20059;-69
2021/03/09 11:09:27;;;;;;;3.15;1.77;;;24.40;53.70;;;;;;5051348;28;20043;-68
2021/03/09 11:12:32;;;;;;;2.03;1.67;;;25.10;52.70;;;;;;5065512;28;20052;-68
2021/03/09 11:15:36;;;;;;;2.17;1.83;;;23.50;53.50;;;;;;5060440;28;20055;-67
2021/03/09 11:18:41;;;;;;;2.20;1.65;;;22.00;57.00;;;;;;5056213;28;20047;-66
2021/03/09 11:21:45;;;;;;;3.42;2.10;;;21.20;57.50;;;;;;5060363;28;20063;-68
2021/03/09 11:24:49;;;;;;;4.45;1.80;;;20.60;58.90;;;;;;5065827;28;20036;-68
2021/03/09 11:27:54;;;;;;;3.95;1.90;;;19.40;59.00;;;;;;5065332;28;20060;-67
2021/03/09 11:30:58;;;;;;;3.00;1.98;;;17.30;63.70;;;;;;5062903;28;20091;-67
2021/03/09 11:34:02;;;;;;;4.65;2.03;;;16.20;67.30;;;;;;5061964;28;20039;-67
2021/03/09 11:37:05;;;;;;;4.32;2.25;;;16.20;68.70;;;;;;5059981;28;20055;-67
2021/03/09 11:40:10;;;;;;;3.65;1.92;;;17.20;67.50;;;;;;5058266;28;20055;-67
2021/03/09 11:43:14;;;;;;;5.05;2.10;;;17.60;68.30;;;;;;5064329;28;20043;-67
2021/03/09 11:46:20;;;;;;;3.42;1.70;;;16.90;69.30;;;;;;5053970;28;20060;-67
2021/03/09 11:49:24;;;;;;;3.53;2.00;;;16.10;67.70;;;;;;5064570;28;20047;-68
2021/03/09 11:52:28;;;;;;;3.28;1.83;;;16.20;69.30;;;;;;5067300;28;20039;-68
2021/03/09 11:55:33;;;;;;;1.70;1.30;;;17.50;65.90;;;;;;5065876;28;20040;-68
2021/03/09 11:58:37;;;;;;;3.13;1.52;;;17.20;66.50;;;;;;5049384;28;20032;-67
2021/03/09 12:01:41;;;;;;;2.83;1.42;;;17.00;65.00;;;;;;5053745;28;20055;-67
2021/03/09 12:04:45;;;;;;;2.83;1.48;;;17.00;66.50;;;;;;5067035;28;20040;-67
2021/03/09 12:07:49;;;;;;;5.50;1.55;;;16.20;67.80;;;;;;5060852;28;20401;-67
2021/03/09 12:10:53;;;;;;;6.35;1.42;;;17.50;68.00;;;;;;5066625;28;20048;-68
2021/03/09 12:13:59;;;;;;;3.55;1.40;;;19.80;62.80;;;;;;5065946;28;20052;-68
2021/03/09 12:17:04;;;;;;;5.25;1.70;;;22.10;60.50;;;;;;5055444;28;20409;-68
2021/03/09 12:20:09;;;;;;;1.80;1.40;;;23.20;57.60;;;;;;5065116;28;20044;-68
2021/03/09 12:23:13;;;;;;;3.83;1.70;;;22.80;57.90;;;;;;5060223;28;20040;-66
2021/03/09 12:26:17;;;;;;;1.95;1.40;;;22.70;57.60;;;;;;5065570;28;20536;-69
2021/03/09 12:29:21;;;;;;;3.13;1.65;;;24.90;56.20;;;;;;5063159;28;20035;-66
2021/03/09 12:32:25;;;;;;;2.88;2.13;;;24.70;54.30;;;;;;5068032;28;20519;-68
2021/03/09 12:35:29;;;;;;;3.05;1.67;;;23.20;55.70;;;;;;5066220;28;20047;-68
2021/03/09 12:38:33;;;;;;;2.25;1.73;;;22.40;57.60;;;;;;5065309;28;20494;-68
2021/03/09 12:41:37;;;;;;;3.95;1.90;;;21.90;57.40;;;;;;5064383;28;20047;-68
2021/03/09 12:44:41;;;;;;;4.88;2.10;;;20.60;58.80;;;;;;5068368;28;20047;-68
2021/03/09 12:47:46;;;;;;;2.90;1.65;;;21.80;58.50;;;;;;5066375;28;20040;-68
2021/03/09 12:50:50;;;;;;;8.55;2.58;;;23.90;55.70;;;;;;5061380;28;20043;-66
2021/03/09 12:53:55;;;;;;;5.07;2.40;;;24.80;53.90;;;;;;5050883;28;20044;-68
2021/03/09 12:57:02;;;;;;;4.10;2.25;;;24.40;53.50;;;;;;5050635;28;20036;-66
2021/03/09 13:00:08;;;;;;;5.28;2.33;;;24.60;53.50;;;;;;5048982;28;20043;-68
2021/03/09 13:03:13;;;;;;;3.90;1.98;;;25.80;54.00;;;;;;5047618;28;20083;-68
2021/03/09 13:06:18;;;;;;;8.52;2.97;;;25.10;53.00;;;;;;5051265;28;20060;-68
2021/03/09 13:09:23;;;;;;;3.85;2.30;;;24.20;53.20;;;;;;5051787;28;20047;-68
2021/03/09 13:12:27;;;;;;;5.82;2.75;;;24.00;53.50;;;;;;5049719;28;20039;-68
2021/03/09 13:15:31;;;;;;;4.20;2.13;;;22.70;54.80;;;;;;5057600;28;20051;-68
2021/03/09 13:18:35;;;;;;;4.70;2.85;;;24.60;54.60;;;;;;5057933;28;20063;-67
2021/03/09 13:21:40;;;;;;;6.38;2.60;;;24.30;52.90;;;;;;5052987;28;20039;-68
2021/03/09 13:24:47;;;;;;;9.80;3.70;;;23.80;54.20;;;;;;5058752;28;20047;-68
2021/03/09 13:27:51;;;;;;;6.70;3.50;;;22.40;54.40;;;;;;5059433;28;20400;-68
2021/03/09 13:30:55;;;;;;;6.70;3.72;;;20.70;57.80;;;;;;5056932;28;20051;-68
2021/03/09 13:34:02;;;;;;;14.60;3.80;;;20.30;58.00;;;;;;5058573;28;20043;-68
2021/03/09 13:37:07;;;;;;;12.85;8.30;;;20.50;58.00;;;;;;5057819;28;20051;-67
2021/03/09 13:40:14;;;;;;;26.67;15.05;;;20.30;58.90;;;;;;5059045;28;20035;-68
2021/03/09 13:43:19;;;;;;;10.63;4.70;;;21.10;58.70;;;;;;5055568;28;20059;-68
2021/03/09 13:46:23;;;;;;;39.88;32.28;;;21.30;57.20;;;;;;5057002;28;20055;-67
2021/03/09 13:49:28;;;;;;;13.35;8.48;;;20.30;58.60;;;;;;5060341;28;20051;-66
2021/03/09 13:52:33;;;;;;;8.27;5.28;;;18.40;61.40;;;;;;5053102;28;20043;-67
2021/03/09 13:55:38;;;;;;;11.55;4.50;;;17.50;63.80;;;;;;5056900;28;20040;-67
2021/03/09 13:58:42;;;;;;;12.63;5.93;;;18.80;62.30;;;;;;5055950;28;20051;-67
2021/03/09 14:01:51;;;;;;;12.18;4.32;;;19.70;60.50;;;;;;5053971;28;20059;-66
2021/03/09 14:04:55;;;;;;;24.98;16.27;;;18.80;60.50;;;;;;5057209;28;20047;-67
2021/03/09 14:07:59;;;;;;;8.63;4.05;;;18.70;61.80;;;;;;5057440;28;20043;-67
2021/03/09 14:11:03;;;;;;;7.68;3.53;;;18.80;60.70;;;;;;5053493;28;20043;-68
2021/03/09 14:14:07;;;;;;;7.47;5.20;;;19.20;59.80;;;;;;5060747;28;20044;-66
2021/03/09 14:17:13;;;;;;;19.77;4.10;;;19.80;60.40;;;;;;5064321;28;20040;-67
2021/03/09 14:20:18;;;;;;;5.50;3.90;;;20.00;58.90;;;;;;5066807;28;20040;-68
2021/03/09 14:23:22;;;;;;;20.92;13.63;;;19.50;60.50;;;;;;5064161;28;20040;-68
2021/03/09 14:26:26;;;;;;;12.90;9.55;;;20.10;59.60;;;;;;5065158;28;20055;-68
2021/03/09 14:29:30;;;;;;;10.20;6.30;;;20.70;59.10;;;;;;5067931;28;20035;-68
2021/03/09 14:32:34;;;;;;;39.08;20.95;;;20.70;58.50;;;;;;5067702;28;20048;-68
2021/03/09 14:35:39;;;;;;;646.08;369.73;;;21.10;57.00;;;;;;5064580;28;20051;-67
2021/03/09 14:38:43;;;;;;;22.30;12.82;;;18.90;59.40;;;;;;5062343;28;20039;-65
2021/03/09 14:41:48;;;;;;;25.88;15.18;;;17.20;62.10;;;;;;5062220;28;20507;-69
2021/03/09 14:44:52;;;;;;;7.68;4.30;;;16.10;65.90;;;;;;5069434;28;20530;-68
2021/03/09 14:47:56;;;;;;;10.20;3.50;;;15.90;67.10;;;;;;5066841;28;20039;-66
2021/03/09 14:51:01;;;;;;;7.30;4.28;;;16.30;66.60;;;;;;5054509;28;20051;-68
2021/03/09 14:54:06;;;;;;;6.18;3.35;;;16.30;67.00;;;;;;5059350;28;20051;-68
2021/03/09 14:57:10;;;;;;;4.60;2.90;;;16.30;66.00;;;;;;5067349;28;20047;-68
2021/03/09 15:00:17;;;;;;;11.95;7.30;;;16.70;64.90;;;;;;5063995;28;20043;-67
2021/03/09 15:03:21;;;;;;;9.73;5.35;;;17.10;65.50;;;;;;5068521;28;20067;-68
2021/03/09 15:06:26;;;;;;;11.73;6.50;;;17.40;65.10;;;;;;5064865;28;20456;-68
2021/03/09 15:09:31;;;;;;;497.05;290.30;;;17.00;65.70;;;;;;5060199;28;20044;-68
2021/03/09 15:12:37;;;;;;;65.68;35.03;;;15.80;68.20;;;;;;5061078;28;20056;-67
2021/03/09 15:15:42;;;;;;;26.17;18.58;;;15.40;70.20;;;;;;5058046;28;20120;-68
2021/03/09 15:18:46;;;;;;;12.52;7.15;;;14.80;72.00;;;;;;5058268;28;20056;-68
2021/03/09 15:21:51;;;;;;;15.63;10.55;;;14.10;74.00;;;;;;5067991;28;20047;-69
2021/03/09 15:24:55;;;;;;;14.43;8.63;;;13.80;75.00;;;;;;5053835;28;20040;-68
2021/03/09 15:28:00;;;;;;;15.38;8.57;;;13.20;77.40;;;;;;5049720;28;20511;-67
2021/03/09 15:31:06;;;;;;;86.28;44.35;;;13.20;78.20;;;;;;5061094;28;20559;-66
2021/03/09 15:34:11;;;;;;;30.27;20.05;;;13.40;77.10;;;;;;5049533;28;20051;-67
2021/03/09 15:37:15;;;;;;;13.10;7.80;;;13.30;77.60;;;;;;5054425;28;20043;-67
2021/03/09 15:40:20;;;;;;;12.70;7.30;;;13.30;77.70;;;;;;5066416;28;20047;-68
2021/03/09 15:43:24;;;;;;;12.65;7.45;;;13.70;76.90;;;;;;5062901;28;20039;-68
2021/03/09 15:46:28;;;;;;;10.57;6.88;;;13.90;75.80;;;;;;5060001;28;20047;-67
2021/03/09 15:49:32;;;;;;;12.98;6.57;;;13.80;74.60;;;;;;5067357;28;20047;-67
2021/03/09 15:52:37;;;;;;;20.35;9.77;;;14.10;74.60;;;;;;5059780;28;20416;-68
2021/03/09 15:55:41;;;;;;;10.32;5.85;;;14.40;73.70;;;;;;5051104;28;20419;-65
2021/03/09 15:58:47;;;;;;;9.82;6.10;;;14.30;72.80;;;;;;5063254;28;20044;-68
2021/03/09 16:01:52;;;;;;;10.32;6.43;;;14.40;72.90;;;;;;5062305;28;20051;-67
2021/03/09 16:04:56;;;;;;;11.32;6.43;;;14.60;73.40;;;;;;5067110;28;20047;-67